Terminal Aerodrome Forecast
Issued by NWS

Current Version | Previous Version | Text Only | Print | Product List | Glossary On
Versions: 1 2 3 4 5 6 7 8 9 10 11 12 13 14 15 16 17 18 19 20 21 22 23 24 25 26 27 28 29 30 31 32 33 34 35 36 37 38 39 40 41 42 43 44 45 46 47 48 49
000
FTUS45 KGJT 230529
TAFRIL
TAFRIL
TAF
KRIL 230529Z 2306/2406 16006KT P6SM VCSH SCT060 BKN100
      TEMPO 2306/2307 VRB10G20KT -SHRA BKN060
     FM230900 18008KT P6SM BKN120
     FM231500 31008KT P6SM BKN120
     FM231800 25007KT P6SM FEW060 BKN120
     FM232100 25010KT P6SM VCSH BKN060
     FM240300 15004KT P6SM VCSH SCT060 BKN120=

USA.gov is the U.S. government's official web portal to all federal, state and local government web resources and services.